Pagina principale
METAR-TAF:

METAR-TAF

Aeroporti :

Prato Nevoso, Italia

Monte Malanotte

latitudine: 44-15N, longitudine: 007-48E, altezza: 1741 m

Osservazione

Il bollettino è stato emesso 46 minuti fa, alle 08:55 UTC
Vento 2 kt da direzioni variabili
Temperature 23°C
Umidità 83%
Pressione 1020 hPa
Visibilità 10 km o più
Poco nuvoloso ad un'altezza di 2500 ft

METAR: LIMY 290855Z VRB02KT 9999 FEW025 23/20 Q1020 RMK FEW VAL FOSCHIA VIS MIN 9999

Ora: 11:41 (09:41 UTC)


TAF: mancante

Osservazioni e previsioni meteorologiche di più di 4000 aeroporti (messaggi METAR e TAF).

Le stazioni disponibili sono rappresentate dai dischi gialli e rossi sulla carta.

Puntare il mouse per vedere il nome della stazione.

Clicca sopra per visualizzare le osservazioni e previsioni meteorologiche.

Per cambiare la mappa : fare clic sui pulsanti verdi con una croce nera per ingrandire, il pulsante verde con un trattino per diminuire, o sulla freccia verde per le mappe adiacenti.


METAR-TAF: